Mississippi Star — 9HA2441 — position and weather

sailwx.info

Track history (hours):
 
Tides and Currents Weather Stations Pressure Air Temp Water Temp Dewpoint Dewpoint Depression Visibility Wind Speed Wind Dir Waves Ship Positions

Mississippi Star

Last reported at 2014-Sep-22 04:09 UTC. Time now 2014-Sep-23 04:20 UTC.
Position N 59°47' E 024°55'.

Length 128 m; draft 7.2 m.

Type: Ship. MMSI: 248621000.

Date/timePositionNaut miles runAvg speedWind from/ knotsBaromVisibWave heightAir tempDewpointWater temp
2014-Sep-22 04:09N 59°47' E 024°55'711.8
2014-Sep-22 03:33N 59°45' E 024°42'1211.6
2014-Sep-22 02:33N 59°43' E 024°20'1511.7
2014-Sep-22 01:18N 59°38' E 023°52'912.2
2014-Sep-22 00:33N 59°35' E 023°35'22012.9
2014-Sep-21 07:25N 56°57' E 018°43'9613.6
2014-Sep-21 00:19N 55°57' E 016°27'1513.5
2014-Sep-20 23:12N 55°50' E 016°04'2613.6
2014-Sep-20 21:18N 55°37' E 015°23'1013.7
2014-Sep-20 20:33N 55°32' E 015°07'1413.6
2014-Sep-20 19:33N 55°26' E 014°46'1313.5
2014-Sep-20 18:34N 55°16' E 014°29'1413.3
2014-Sep-20 17:32N 55°05' E 014°14'1212.8
2014-Sep-20 16:33N 54°59' E 013°56'1413.6
2014-Sep-20 15:33N 54°55' E 013°33'1413.6
2014-Sep-20 14:33N 54°50' E 013°11'1413.6
2014-Sep-20 13:34N 54°46' E 012°49'1313.2
2014-Sep-20 12:34N 54°39' E 012°29'1312.7
2014-Sep-20 11:33N 54°29' E 012°15'1212.1
2014-Sep-20 10:33N 54°25' E 011°56'1312.8
2014-Sep-20 09:33N 54°28' E 011°35'1313.2
2014-Sep-20 08:33N 54°34' E 011°14'1312.6
2014-Sep-20 07:33N 54°35' E 010°53'1313.3
2014-Sep-20 06:33N 54°32' E 010°30'1111.2
2014-Sep-20 05:34N 54°26' E 010°14'5 4.3
2014-Sep-20 04:21N 54°22' E 010°08'39 6.5
2014-Sep-19 22:25N 53°58' E 009°16'6 7.3
2014-Sep-19 21:33N 53°54' E 009°09'2 2.2
2014-Sep-19 20:33N 53°53' E 009°05'10 9.8
2014-Sep-19 19:33N 53°50' E 008°49'1312.7
2014-Sep-19 18:33N 53°58' E 008°32'1313.3
2014-Sep-19 17:34N 53°60' E 008°10'1111.0
2014-Sep-19 16:33N 54°03' E 007°52'1212.3
2014-Sep-19 15:33N 54°08' E 007°33'1212.1
2014-Sep-19 14:32N 54°09' E 007°12'4411.1
2014-Sep-19 10:33N 54°07' E 005°57'1111.0
2014-Sep-19 09:33N 54°05' E 005°38'1111.0
2014-Sep-19 08:34N 54°03' E 005°20'1111.1
2014-Sep-19 07:33N 54°01' E 005°01'1010.5
2014-Sep-19 06:33N 54°00' E 004°43'1211.7
2014-Sep-19 05:33N 53°52' E 004°30'1211.9
2014-Sep-19 04:33N 53°44' E 004°15'1212.0
2014-Sep-19 03:33N 53°36' E 003°59'1211.7
2014-Sep-19 02:33N 53°29' E 003°44'1212.0
2014-Sep-19 01:33N 53°17' E 003°36'1212.3
2014-Sep-19 00:33N 53°06' E 003°27'1212.5
2014-Sep-18 23:34N 52°55' E 003°20'1312.5
2014-Sep-18 22:33N 52°43' E 003°11'1312.6
2014-Sep-18 21:34N 52°31' E 003°11'1212.2
2014-Sep-18 20:33N 52°18' E 003°11'1211.7
2014-Sep-18 19:33N 52°07' E 003°06'1211.6
2014-Sep-18 18:33N 51°58' E 002°54'1111.1
2014-Sep-18 17:33N 51°50' E 002°42'1110.8
2014-Sep-18 16:33N 51°42' E 002°31'1110.7
2014-Sep-18 15:33N 51°34' E 002°19'1110.9
2014-Sep-18 14:34N 51°25' E 002°09'1110.9
2014-Sep-18 13:33N 51°14' E 002°05'1111.0
2014-Sep-18 12:34N 51°09' E 001°50'1111.4
2014-Sep-18 11:34N 51°02' E 001°36'1211.7
2014-Sep-18 10:34N 50°52' E 001°25'2612.0
2014-Sep-18 08:23N 50°32' E 001°00'911.4
2014-Sep-18 07:33N 50°29' E 000°46'1111.4
2014-Sep-18 06:34N 50°26' E 000°29'1211.6
2014-Sep-18 05:33N 50°23' E 000°11'  
2014-Sep-14 19:32N 38°01' W 009°45'1111.4
2014-Sep-14 18:33N 37°50' W 009°42'1211.9
2014-Sep-14 17:33N 37°38' W 009°38'7210.2
2014-Sep-14 10:30N 36°36' W 008°53'1212.0
2014-Sep-14 09:33N 36°33' W 008°39'8113.3
2014-Sep-14 03:28N 36°08' W 007°03'84 5.9
2014-Sep-13 13:06N 36°06' W 005°19'206 8.7
2014-Sep-12 13:28N 37°07' W 001°14'1011.4
2014-Sep-12 12:33N 37°14' W 001°04'1211.5
2014-Sep-12 11:33N 37°21' W 000°53'1211.9
2014-Sep-12 10:33N 37°29' W 000°42'1211.7
2014-Sep-12 09:33N 37°37' W 000°31'1212.0
2014-Sep-12 08:33N 37°47' W 000°23'1211.7
2014-Sep-12 07:33N 37°57' W 000°15'1211.9
2014-Sep-12 06:33N 38°07' W 000°07'1211.9
2014-Sep-12 05:33N 38°17' E 000°02'  
Track history (hours):
 
Tides and Currents Weather Stations Pressure Air Temp Water Temp Dewpoint Dewpoint Depression Visibility Wind Speed Wind Dir Waves Ship Positions

Mississippi Star

Last reported at 2014-Sep-22 04:09 UTC. Time now 2014-Sep-23 04:20 UTC.
Position N 59°47' E 024°55'.

Length 128 m; draft 7.2 m.

Type: Ship. MMSI: 248621000.

Date/timePositionNaut miles runAvg speedWind from/ knotsBaromVisibWave heightAir tempDewpointWater temp
2014-Sep-22 04:09N 59°47' E 024°55'711.8
2014-Sep-22 03:33N 59°45' E 024°42'1211.6
2014-Sep-22 02:33N 59°43' E 024°20'1511.7
2014-Sep-22 01:18N 59°38' E 023°52'912.2
2014-Sep-22 00:33N 59°35' E 023°35'22012.9
2014-Sep-21 07:25N 56°57' E 018°43'9613.6
2014-Sep-21 00:19N 55°57' E 016°27'1513.5
2014-Sep-20 23:12N 55°50' E 016°04'2613.6
2014-Sep-20 21:18N 55°37' E 015°23'1013.7
2014-Sep-20 20:33N 55°32' E 015°07'1413.6
2014-Sep-20 19:33N 55°26' E 014°46'1313.5
2014-Sep-20 18:34N 55°16' E 014°29'1413.3
2014-Sep-20 17:32N 55°05' E 014°14'1212.8
2014-Sep-20 16:33N 54°59' E 013°56'1413.6
2014-Sep-20 15:33N 54°55' E 013°33'1413.6
2014-Sep-20 14:33N 54°50' E 013°11'1413.6
2014-Sep-20 13:34N 54°46' E 012°49'1313.2
2014-Sep-20 12:34N 54°39' E 012°29'1312.7
2014-Sep-20 11:33N 54°29' E 012°15'1212.1
2014-Sep-20 10:33N 54°25' E 011°56'1312.8
2014-Sep-20 09:33N 54°28' E 011°35'1313.2
2014-Sep-20 08:33N 54°34' E 011°14'1312.6
2014-Sep-20 07:33N 54°35' E 010°53'1313.3
2014-Sep-20 06:33N 54°32' E 010°30'1111.2
2014-Sep-20 05:34N 54°26' E 010°14'5 4.3
2014-Sep-20 04:21N 54°22' E 010°08'39 6.5
2014-Sep-19 22:25N 53°58' E 009°16'6 7.3
2014-Sep-19 21:33N 53°54' E 009°09'2 2.2
2014-Sep-19 20:33N 53°53' E 009°05'10 9.8
2014-Sep-19 19:33N 53°50' E 008°49'1312.7
2014-Sep-19 18:33N 53°58' E 008°32'1313.3
2014-Sep-19 17:34N 53°60' E 008°10'1111.0
2014-Sep-19 16:33N 54°03' E 007°52'1212.3
2014-Sep-19 15:33N 54°08' E 007°33'1212.1
2014-Sep-19 14:32N 54°09' E 007°12'4411.1
2014-Sep-19 10:33N 54°07' E 005°57'1111.0
2014-Sep-19 09:33N 54°05' E 005°38'1111.0
2014-Sep-19 08:34N 54°03' E 005°20'1111.1
2014-Sep-19 07:33N 54°01' E 005°01'1010.5
2014-Sep-19 06:33N 54°00' E 004°43'1211.7
2014-Sep-19 05:33N 53°52' E 004°30'1211.9
2014-Sep-19 04:33N 53°44' E 004°15'1212.0
2014-Sep-19 03:33N 53°36' E 003°59'1211.7
2014-Sep-19 02:33N 53°29' E 003°44'1212.0
2014-Sep-19 01:33N 53°17' E 003°36'1212.3
2014-Sep-19 00:33N 53°06' E 003°27'1212.5
2014-Sep-18 23:34N 52°55' E 003°20'1312.5
2014-Sep-18 22:33N 52°43' E 003°11'1312.6
2014-Sep-18 21:34N 52°31' E 003°11'1212.2
2014-Sep-18 20:33N 52°18' E 003°11'1211.7
2014-Sep-18 19:33N 52°07' E 003°06'1211.6
2014-Sep-18 18:33N 51°58' E 002°54'1111.1
2014-Sep-18 17:33N 51°50' E 002°42'1110.8
2014-Sep-18 16:33N 51°42' E 002°31'1110.7
2014-Sep-18 15:33N 51°34' E 002°19'1110.9
2014-Sep-18 14:34N 51°25' E 002°09'1110.9
2014-Sep-18 13:33N 51°14' E 002°05'1111.0
2014-Sep-18 12:34N 51°09' E 001°50'1111.4
2014-Sep-18 11:34N 51°02' E 001°36'1211.7
2014-Sep-18 10:34N 50°52' E 001°25'2612.0
2014-Sep-18 08:23N 50°32' E 001°00'911.4
2014-Sep-18 07:33N 50°29' E 000°46'1111.4
2014-Sep-18 06:34N 50°26' E 000°29'1211.6
2014-Sep-18 05:33N 50°23' E 000°11'  
2014-Sep-14 19:32N 38°01' W 009°45'1111.4
2014-Sep-14 18:33N 37°50' W 009°42'1211.9
2014-Sep-14 17:33N 37°38' W 009°38'7210.2
2014-Sep-14 10:30N 36°36' W 008°53'1212.0
2014-Sep-14 09:33N 36°33' W 008°39'8113.3
2014-Sep-14 03:28N 36°08' W 007°03'84 5.9
2014-Sep-13 13:06N 36°06' W 005°19'206 8.7
2014-Sep-12 13:28N 37°07' W 001°14'1011.4
2014-Sep-12 12:33N 37°14' W 001°04'1211.5
2014-Sep-12 11:33N 37°21' W 000°53'1211.9
2014-Sep-12 10:33N 37°29' W 000°42'1211.7
2014-Sep-12 09:33N 37°37' W 000°31'1212.0
2014-Sep-12 08:33N 37°47' W 000°23'1211.7
2014-Sep-12 07:33N 37°57' W 000°15'1211.9
2014-Sep-12 06:33N 38°07' W 000°07'1211.9
2014-Sep-12 05:33N 38°17' E 000°02'  

Dump ship's entire track history